createdAt,value
2023-04-04T00:02:47.698Z,-2.70
2023-04-04T00:05:38.425Z,-2.70
2023-04-04T00:08:28.729Z,-2.70
2023-04-04T00:11:26.220Z,-2.70
2023-04-04T00:14:28.281Z,-2.70
2023-04-04T00:17:24.935Z,-2.70
2023-04-04T00:20:15.801Z,-2.60
2023-04-04T00:23:05.370Z,-2.60
2023-04-04T00:26:00.740Z,-2.60
2023-04-04T00:28:53.066Z,-2.30
2023-04-04T00:31:43.599Z,-2.40
2023-04-04T00:34:36.626Z,-2.40
2023-04-04T00:37:27.115Z,-2.40
2023-04-04T00:40:18.512Z,-2.20
2023-04-04T00:43:11.107Z,-2.00
2023-04-04T00:46:04.601Z,-2.00
2023-04-04T00:48:58.771Z,-2.20
2023-04-04T00:51:48.766Z,-2.30
2023-04-04T00:54:40.554Z,-2.40
2023-04-04T00:57:31.365Z,-2.30
2023-04-04T01:00:25.789Z,-2.30
2023-04-04T01:03:23.377Z,-2.50
2023-04-04T01:06:14.306Z,-2.30
2023-04-04T01:09:10.366Z,-2.30
2023-04-04T01:12:03.946Z,-2.20
2023-04-04T01:14:53.718Z,-2.20
2023-04-04T01:17:45.968Z,-2.30
2023-04-04T01:20:44.660Z,-2.40
2023-04-04T01:23:47.213Z,-2.50
2023-04-04T01:26:42.207Z,-2.40
2023-04-04T01:29:35.741Z,-2.50
2023-04-04T01:32:39.356Z,-2.50
2023-04-04T01:35:35.254Z,-2.50
2023-04-04T01:38:35.788Z,-2.40
2023-04-04T01:41:28.342Z,-2.50
2023-04-04T01:44:30.266Z,-2.50
2023-04-04T01:47:21.121Z,-2.40
2023-04-04T01:50:14.000Z,-2.00
2023-04-04T01:53:04.585Z,-1.90
2023-04-04T01:55:56.455Z,-1.90
2023-04-04T01:58:47.648Z,-1.80
2023-04-04T02:01:41.752Z,-1.90
2023-04-04T02:04:38.501Z,-1.80
2023-04-04T02:07:28.602Z,-1.80
2023-04-04T02:12:55.499Z,-1.90
2023-04-04T02:15:44.932Z,-2.00
2023-04-04T02:18:37.709Z,-1.90
2023-04-04T02:21:27.697Z,-2.00
2023-04-04T02:24:17.699Z,-2.00
2023-04-04T02:27:07.063Z,-2.00
2023-04-04T02:29:56.912Z,-2.00
2023-04-04T02:32:49.332Z,-2.20
2023-04-04T02:35:40.120Z,-2.00
2023-04-04T02:38:29.967Z,-2.20
2023-04-04T02:41:19.341Z,-1.80
2023-04-04T02:44:10.183Z,-1.90
2023-04-04T02:46:59.655Z,-1.80
2023-04-04T02:49:49.401Z,-2.00
2023-04-04T02:52:40.162Z,-1.90
2023-04-04T02:55:29.572Z,-1.70
2023-04-04T02:58:19.027Z,-1.70
2023-04-04T03:01:08.551Z,-2.10
2023-04-04T03:03:57.922Z,-1.60
2023-04-04T03:06:48.787Z,-1.70
2023-04-04T03:09:40.525Z,-2.00
2023-04-04T03:12:30.067Z,-1.50
2023-04-04T03:15:19.805Z,-1.60
2023-04-04T03:18:09.481Z,-1.50
2023-04-04T03:20:58.831Z,-1.50
2023-04-04T03:23:48.363Z,-1.90
2023-04-04T03:26:39.825Z,-1.50
2023-04-04T03:29:29.166Z,-1.60
2023-04-04T03:32:19.205Z,-1.60
2023-04-04T03:35:09.508Z,-1.80
2023-04-04T03:37:58.990Z,-1.50
2023-04-04T03:40:48.313Z,-1.70
2023-04-04T03:43:39.156Z,-1.80
2023-04-04T03:46:28.802Z,-1.90
2023-04-04T03:49:18.401Z,-1.70
2023-04-04T03:52:08.116Z,-2.00
2023-04-04T03:54:57.618Z,-2.00
2023-04-04T03:57:47.463Z,-2.00
2023-04-04T04:00:38.525Z,-2.00
2023-04-04T04:03:28.439Z,-1.80
2023-04-04T04:06:18.127Z,-1.90
2023-04-04T04:09:11.689Z,-1.80
2023-04-04T04:12:01.027Z,-1.90
2023-04-04T04:14:50.625Z,-1.60
2023-04-04T04:17:43.819Z,-1.50
2023-04-04T04:20:33.436Z,-1.40
2023-04-04T04:23:22.762Z,-1.30
2023-04-04T04:26:12.536Z,-1.20
2023-04-04T04:29:01.858Z,-1.20
2023-04-04T04:31:52.609Z,-1.20
2023-04-04T04:34:43.574Z,-1.20
2023-04-04T04:37:33.297Z,-1.10
2023-04-04T04:40:22.564Z,-1.10
2023-04-04T04:43:12.180Z,-1.10
2023-04-04T04:46:01.750Z,-1.10
2023-04-04T04:48:52.071Z,-1.00
2023-04-04T04:51:43.765Z,-1.00
2023-04-04T04:54:33.510Z,-0.90
2023-04-04T04:57:23.726Z,-0.80
2023-04-04T05:00:14.542Z,-0.60
2023-04-04T05:03:03.877Z,-0.50
2023-04-04T05:05:53.950Z,-0.40
2023-04-04T05:08:44.817Z,-0.50
2023-04-04T05:11:34.351Z,-0.40
2023-04-04T05:14:24.289Z,-0.30
2023-04-04T05:17:13.660Z,-0.20
2023-04-04T05:20:03.377Z,0.00
2023-04-04T05:22:52.837Z,-0.10
2023-04-04T05:25:44.053Z,0.00
2023-04-04T05:28:33.460Z,-0.10
2023-04-04T05:31:22.928Z,-0.10
2023-04-04T05:34:12.228Z,-0.10
2023-04-04T05:37:01.795Z,-0.10
2023-04-04T05:39:51.642Z,0.00
2023-04-04T05:42:43.361Z,-0.10
2023-04-04T05:45:33.249Z,0.00
2023-04-04T05:48:22.831Z,0.10
2023-04-04T05:51:12.497Z,0.20
2023-04-04T05:54:01.904Z,0.40
2023-04-04T05:56:51.586Z,0.60
2023-04-04T05:59:42.608Z,0.90
2023-04-04T06:02:31.951Z,1.20
2023-04-04T06:05:22.128Z,1.30
2023-04-04T06:08:11.628Z,1.70
2023-04-04T06:11:01.268Z,2.00
2023-04-04T06:13:51.185Z,2.20
2023-04-04T06:16:41.983Z,2.00
2023-04-04T06:19:31.543Z,2.20
2023-04-04T06:22:21.887Z,2.20
2023-04-04T06:25:12.262Z,2.40
2023-04-04T06:28:01.620Z,2.40
2023-04-04T06:30:51.036Z,2.30
2023-04-04T06:33:42.179Z,2.40
2023-04-04T06:36:31.475Z,2.30
2023-04-04T06:39:21.039Z,2.40
2023-04-04T06:42:10.520Z,2.40
2023-04-04T06:44:59.770Z,2.40
2023-04-04T06:47:50.418Z,2.60
2023-04-04T06:50:41.488Z,2.80
2023-04-04T06:53:32.898Z,3.30
2023-04-04T06:56:22.263Z,3.40
2023-04-04T06:59:12.729Z,3.20
2023-04-04T07:02:02.323Z,3.30
2023-04-04T07:04:52.111Z,3.20
2023-04-04T07:07:42.920Z,3.30
2023-04-04T07:10:32.564Z,3.40
2023-04-04T07:13:22.087Z,3.50
2023-04-04T07:16:12.301Z,3.50
2023-04-04T07:19:01.859Z,2.90
2023-04-04T07:21:51.417Z,2.90
2023-04-04T07:24:43.029Z,2.60
2023-04-04T07:27:32.706Z,2.70
2023-04-04T07:30:26.704Z,2.80
2023-04-04T07:33:16.472Z,2.60
2023-04-04T07:36:06.194Z,2.70
2023-04-04T07:38:55.694Z,2.60
2023-04-04T07:41:46.754Z,2.50
2023-04-04T07:44:36.382Z,2.30
2023-04-04T07:47:25.698Z,2.40
2023-04-04T07:50:15.539Z,2.70
2023-04-04T07:53:05.024Z,2.90
2023-04-04T07:55:54.775Z,3.20
2023-04-04T07:58:45.764Z,3.20
2023-04-04T08:01:35.335Z,2.90
2023-04-04T08:04:25.240Z,3.00
2023-04-04T08:07:14.610Z,2.70
2023-04-04T08:10:04.091Z,2.50
2023-04-04T08:12:53.541Z,2.50
2023-04-04T08:15:45.726Z,2.90
2023-04-04T08:18:35.228Z,3.30
2023-04-04T08:21:24.843Z,3.40
2023-04-04T08:24:14.512Z,3.40
2023-04-04T08:27:05.832Z,3.10
2023-04-04T08:29:55.394Z,2.70
2023-04-04T08:32:46.420Z,2.90
2023-04-04T08:35:36.005Z,2.90
2023-04-04T08:38:25.612Z,3.20
2023-04-04T08:41:16.098Z,3.30
2023-04-04T08:44:06.222Z,3.10
2023-04-04T08:47:00.237Z,3.20
2023-04-04T08:49:53.221Z,3.50
2023-04-04T08:52:43.769Z,3.60
2023-04-04T08:55:33.579Z,3.20
2023-04-04T08:58:22.930Z,3.00
2023-04-04T09:01:13.042Z,3.30
2023-04-04T09:04:03.507Z,3.70
2023-04-04T09:06:55.207Z,4.10
2023-04-04T09:09:47.882Z,4.50
2023-04-04T09:12:39.441Z,4.70
2023-04-04T09:15:29.810Z,5.10
2023-04-04T09:18:19.766Z,5.10
2023-04-04T09:21:12.459Z,4.40
2023-04-04T09:24:07.115Z,4.30
2023-04-04T09:26:57.567Z,4.30
2023-04-04T09:29:47.804Z,4.30
2023-04-04T09:32:37.317Z,4.00
2023-04-04T09:35:28.765Z,4.30
2023-04-04T09:38:19.302Z,4.70
2023-04-04T09:41:11.539Z,4.70
2023-04-04T09:44:02.368Z,4.70
2023-04-04T09:46:54.409Z,4.60
2023-04-04T09:49:44.655Z,4.50
2023-04-04T09:52:36.352Z,4.10
2023-04-04T09:55:34.035Z,3.60
2023-04-04T09:58:31.622Z,3.40
2023-04-04T10:01:21.301Z,3.40
2023-04-04T10:04:11.774Z,3.50
2023-04-04T10:07:02.369Z,3.60
2023-04-04T10:09:53.094Z,3.30
2023-04-04T10:12:42.727Z,3.00
2023-04-04T10:15:40.096Z,3.10
2023-04-04T10:18:31.161Z,3.50
2023-04-04T10:21:20.765Z,4.10
2023-04-04T10:24:13.780Z,4.70
2023-04-04T10:27:03.298Z,5.10
2023-04-04T10:29:53.126Z,5.40
2023-04-04T10:32:59.344Z,5.80
2023-04-04T10:35:54.264Z,6.00
2023-04-04T10:38:46.365Z,5.90
2023-04-04T10:41:37.853Z,5.90
2023-04-04T10:44:34.256Z,6.10
2023-04-04T10:47:26.648Z,6.20
2023-04-04T10:50:18.007Z,6.20
2023-04-04T10:53:11.409Z,6.30
2023-04-04T10:56:03.807Z,6.10
2023-04-04T10:59:10.294Z,5.90
2023-04-04T11:02:01.429Z,5.30
2023-04-04T11:04:50.931Z,4.90
2023-04-04T11:07:44.635Z,4.70
2023-04-04T11:10:41.700Z,5.00
2023-04-04T11:13:37.244Z,5.30
2023-04-04T11:16:27.014Z,5.40
2023-04-04T11:19:18.809Z,5.50
2023-04-04T11:22:08.755Z,5.80
2023-04-04T11:25:24.852Z,5.90
2023-04-04T11:28:27.807Z,6.20
2023-04-04T11:31:29.498Z,5.90
2023-04-04T11:34:32.303Z,5.90
2023-04-04T11:37:22.690Z,5.70
2023-04-04T11:40:16.000Z,6.00
2023-04-04T11:43:10.341Z,6.00
2023-04-04T11:46:11.035Z,6.20
2023-04-04T11:49:02.461Z,5.90
2023-04-04T11:51:53.229Z,6.10
2023-04-04T11:54:45.639Z,6.00
2023-04-04T11:57:45.026Z,6.00
2023-04-04T12:00:37.625Z,5.90
2023-04-04T12:03:31.300Z,5.80
2023-04-04T12:06:21.230Z,5.90
2023-04-04T12:09:17.861Z,5.90
2023-04-04T12:12:08.478Z,6.10
2023-04-04T12:15:10.305Z,6.20
2023-04-04T12:18:04.888Z,6.10
2023-04-04T12:20:54.828Z,6.10
2023-04-04T12:23:44.502Z,6.20
2023-04-04T12:26:34.206Z,5.80
2023-04-04T12:29:25.499Z,5.90
2023-04-04T12:32:17.929Z,5.80
2023-04-04T12:35:08.228Z,6.00
2023-04-04T12:38:07.760Z,6.00
2023-04-04T12:40:57.437Z,5.80
2023-04-04T12:43:49.159Z,5.50
2023-04-04T12:46:45.306Z,5.00
2023-04-04T12:49:46.077Z,4.40
2023-04-04T12:52:41.442Z,4.20
2023-04-04T12:55:33.941Z,4.10
2023-04-04T12:58:25.378Z,4.50
2023-04-04T13:01:16.738Z,4.90
2023-04-04T13:04:06.622Z,4.90
2023-04-04T13:07:03.464Z,4.90
2023-04-04T13:09:57.511Z,4.60
2023-04-04T13:13:00.755Z,4.10
2023-04-04T13:15:51.159Z,4.20
2023-04-04T13:18:43.699Z,4.50
2023-04-04T13:21:41.208Z,4.80
2023-04-04T13:24:32.420Z,4.80
2023-04-04T13:27:22.202Z,4.60
2023-04-04T13:30:13.978Z,4.50
2023-04-04T13:33:03.966Z,4.50
2023-04-04T13:35:53.773Z,4.80
2023-04-04T13:38:43.742Z,4.90
2023-04-04T13:41:34.682Z,5.00
2023-04-04T13:44:26.047Z,5.20
2023-04-04T13:47:16.963Z,4.80
2023-04-04T13:50:07.207Z,5.10
2023-04-04T13:52:57.082Z,4.90
2023-04-04T13:56:13.062Z,4.30
2023-04-04T13:58:58.332Z,3.80
2023-04-04T14:01:47.950Z,3.60
2023-04-04T14:04:37.777Z,3.70
2023-04-04T14:07:27.914Z,3.70
2023-04-04T14:10:17.431Z,3.60
2023-04-04T14:13:07.345Z,3.80
2023-04-04T14:15:58.970Z,3.80
2023-04-04T14:18:49.496Z,4.00
2023-04-04T14:21:39.124Z,4.00
2023-04-04T14:24:28.982Z,3.90
2023-04-04T14:27:18.328Z,3.70
2023-04-04T14:30:09.507Z,3.80
2023-04-04T14:33:01.066Z,3.80
2023-04-04T14:35:51.345Z,3.90
2023-04-04T14:38:41.329Z,3.90
2023-04-04T14:41:30.828Z,3.90
2023-04-04T14:44:21.629Z,3.80
2023-04-04T14:47:11.330Z,3.70
2023-04-04T14:50:03.007Z,3.70
2023-04-04T14:52:53.214Z,3.70
2023-04-04T14:55:42.886Z,3.80
2023-04-04T14:58:32.922Z,3.70
2023-04-04T15:01:23.115Z,3.60
2023-04-04T15:04:13.735Z,3.80
2023-04-04T15:07:04.804Z,3.90
2023-04-04T15:09:54.944Z,3.80
2023-04-04T15:12:45.498Z,3.80
2023-04-04T15:15:35.255Z,3.50
2023-04-04T15:18:24.836Z,3.40
2023-04-04T15:21:14.780Z,3.30
2023-04-04T15:24:05.877Z,3.30
2023-04-04T15:26:56.504Z,3.40
2023-04-04T15:29:47.100Z,3.70
2023-04-04T15:32:37.139Z,4.00
2023-04-04T15:35:26.679Z,4.30
2023-04-04T15:38:16.080Z,4.60
2023-04-04T15:41:10.408Z,4.90
2023-04-04T15:44:01.869Z,5.10
2023-04-04T15:46:52.018Z,4.70
2023-04-04T15:49:41.469Z,4.10
2023-04-04T15:52:30.977Z,3.90
2023-04-04T15:55:22.010Z,3.80
2023-04-04T15:58:13.691Z,3.50
2023-04-04T16:01:03.283Z,3.30
2023-04-04T16:03:53.320Z,3.00
2023-04-04T16:06:43.059Z,2.70
2023-04-04T16:09:32.477Z,2.60
2023-04-04T16:12:22.542Z,2.40
2023-04-04T16:15:14.508Z,2.10
2023-04-04T16:18:04.575Z,2.00
2023-04-04T16:20:54.658Z,2.00
2023-04-04T16:23:44.768Z,1.90
2023-04-04T16:26:34.778Z,1.80
2023-04-04T16:29:24.216Z,1.60
2023-04-04T16:32:15.527Z,1.50
2023-04-04T16:35:05.029Z,1.60
2023-04-04T16:37:55.439Z,1.50
2023-04-04T16:40:45.063Z,1.50
2023-04-04T16:43:34.860Z,1.50
2023-04-04T16:46:24.398Z,1.50
2023-04-04T16:49:17.105Z,1.50
2023-04-04T16:52:06.822Z,1.40
2023-04-04T16:54:56.912Z,1.30
2023-04-04T16:57:46.837Z,1.30
2023-04-04T17:00:36.693Z,1.20
2023-04-04T17:03:26.470Z,1.00
2023-04-04T17:06:17.892Z,0.90
2023-04-04T17:09:08.132Z,0.80
2023-04-04T17:11:59.221Z,1.00
2023-04-04T17:14:48.778Z,1.10
2023-04-04T17:17:38.247Z,1.20
2023-04-04T17:20:29.838Z,1.30
2023-04-04T17:23:22.450Z,1.40
2023-04-04T17:26:12.269Z,1.40
2023-04-04T17:29:01.958Z,1.30
2023-04-04T17:31:52.362Z,1.30
2023-04-04T17:34:42.624Z,1.30
2023-04-04T17:37:33.021Z,1.30
2023-04-04T17:40:24.443Z,1.20
2023-04-04T17:43:14.252Z,1.20
2023-04-04T17:46:07.168Z,1.20
2023-04-04T17:48:57.044Z,1.20
2023-04-04T17:51:49.500Z,1.10
2023-04-04T17:54:40.343Z,1.10
2023-04-04T17:57:32.427Z,1.10
2023-04-04T18:00:23.947Z,1.10
2023-04-04T18:03:14.947Z,1.00
2023-04-04T18:06:04.882Z,1.00
2023-04-04T18:08:55.189Z,1.00
2023-04-04T18:11:45.668Z,1.00
2023-04-04T18:14:37.366Z,0.90
2023-04-04T18:17:29.402Z,1.00
2023-04-04T18:20:31.887Z,1.00
2023-04-04T18:23:25.200Z,1.10
2023-04-04T18:26:15.989Z,1.00
2023-04-04T18:29:06.993Z,0.80
2023-04-04T18:32:02.281Z,0.60
2023-04-04T18:34:53.030Z,0.40
2023-04-04T18:37:44.086Z,0.20
2023-04-04T18:40:34.741Z,0.10
2023-04-04T18:43:29.462Z,-0.10
2023-04-04T18:46:19.348Z,-0.20
2023-04-04T18:49:10.900Z,-0.30
2023-04-04T18:52:00.564Z,-0.40
2023-04-04T18:54:50.992Z,-0.50
2023-04-04T18:57:50.107Z,-0.70
2023-04-04T19:00:41.078Z,-0.70
2023-04-04T19:03:32.417Z,-0.70
2023-04-04T19:06:27.767Z,-0.80
2023-04-04T19:09:19.124Z,-0.70
2023-04-04T19:12:09.832Z,-0.60
2023-04-04T19:15:02.258Z,-0.40
2023-04-04T19:17:53.367Z,-0.20
2023-04-04T19:20:44.951Z,-0.10
2023-04-04T19:23:36.703Z,0.00
2023-04-04T19:26:26.984Z,0.10
2023-04-04T19:29:24.592Z,0.30
2023-04-04T19:32:16.812Z,0.30
2023-04-04T19:35:23.122Z,0.30
2023-04-04T19:38:15.406Z,0.40
2023-04-04T19:41:11.302Z,0.40
2023-04-04T19:44:02.821Z,0.40
2023-04-04T19:46:54.093Z,0.50
2023-04-04T19:49:43.851Z,0.50
2023-04-04T19:52:34.765Z,0.40
2023-04-04T19:55:40.843Z,0.50
2023-04-04T19:58:33.214Z,0.40
2023-04-04T20:01:25.921Z,0.40
2023-04-04T20:04:16.013Z,0.30
2023-04-04T20:07:06.798Z,0.30
2023-04-04T20:09:57.206Z,0.30
2023-04-04T20:12:47.979Z,0.40
2023-04-04T20:16:01.673Z,0.40
2023-04-04T20:18:53.174Z,0.40
2023-04-04T20:21:43.133Z,0.50
2023-04-04T20:24:33.966Z,0.50
2023-04-04T20:27:28.542Z,0.50
2023-04-04T20:30:17.995Z,0.60
2023-04-04T20:33:45.056Z,0.60
2023-04-04T20:36:34.979Z,0.60
2023-04-04T20:39:42.567Z,0.60
2023-04-04T20:42:40.898Z,0.50
2023-04-04T20:45:47.072Z,0.60
2023-04-04T20:48:47.998Z,0.60
2023-04-04T20:51:38.185Z,0.50
2023-04-04T20:54:28.599Z,0.50
2023-04-04T20:57:26.576Z,0.50
2023-04-04T21:00:41.216Z,0.40
2023-04-04T21:03:50.848Z,0.40
2023-04-04T21:06:41.310Z,0.40
2023-04-04T21:09:31.210Z,0.40
2023-04-04T21:12:20.815Z,0.40
2023-04-04T21:15:24.780Z,0.40
2023-04-04T21:18:14.369Z,0.50
2023-04-04T21:21:17.982Z,0.40
2023-04-04T21:24:10.481Z,0.40
2023-04-04T21:27:00.939Z,0.20
2023-04-04T21:29:50.462Z,0.10
2023-04-04T21:32:40.496Z,0.00
2023-04-04T21:35:46.747Z,-0.10
2023-04-04T21:38:38.667Z,-0.10
2023-04-04T21:41:29.909Z,-0.20
2023-04-04T21:44:19.401Z,-0.20
2023-04-04T21:47:09.191Z,-0.30
2023-04-04T21:50:00.667Z,-0.40
2023-04-04T21:52:50.138Z,-0.40
2023-04-04T21:55:41.054Z,-0.60
2023-04-04T21:58:30.966Z,-0.80
2023-04-04T22:01:21.076Z,-0.90
2023-04-04T22:04:10.477Z,-1.20
2023-04-04T22:06:59.983Z,-1.30
2023-04-04T22:09:53.197Z,-1.40
2023-04-04T22:12:47.636Z,-1.50
2023-04-04T22:15:49.052Z,-1.60
2023-04-04T22:18:43.163Z,-1.70
2023-04-04T22:21:37.428Z,-1.80
2023-04-04T22:24:26.977Z,-1.90
2023-04-04T22:27:16.698Z,-1.90
2023-04-04T22:30:09.303Z,-1.90
2023-04-04T22:33:00.113Z,-2.00
2023-04-04T22:35:50.097Z,-2.00
2023-04-04T22:38:40.047Z,-2.00
2023-04-04T22:41:31.809Z,-1.90
2023-04-04T22:44:21.445Z,-1.80
2023-04-04T22:47:12.304Z,-1.70
2023-04-04T22:50:05.582Z,-1.60
2023-04-04T22:52:55.227Z,-1.50
2023-04-04T22:55:44.656Z,-1.40
2023-04-04T22:58:34.662Z,-1.40
2023-04-04T23:01:24.125Z,-1.40
2023-04-04T23:04:15.953Z,-1.70
2023-04-04T23:07:05.363Z,-1.40
2023-04-04T23:09:55.449Z,-1.40
2023-04-04T23:12:45.000Z,-1.20
2023-04-04T23:15:38.031Z,-1.10
2023-04-04T23:18:27.810Z,-0.90
2023-04-04T23:21:18.700Z,-0.80
2023-04-04T23:24:09.467Z,-0.70
2023-04-04T23:26:59.221Z,-0.60
2023-04-04T23:29:51.052Z,-0.60
2023-04-04T23:32:40.590Z,-0.50
2023-04-04T23:35:30.749Z,-0.50
2023-04-04T23:38:21.736Z,-0.50
2023-04-04T23:41:11.800Z,-0.40
2023-04-04T23:44:01.442Z,-0.40
2023-04-04T23:46:50.916Z,-0.50
2023-04-04T23:49:40.901Z,-0.40
2023-04-04T23:52:31.020Z,-0.50
2023-04-04T23:55:21.968Z,-0.60
2023-04-04T23:58:11.404Z,-0.60
